Prairie City, Missouri
Current Conditions -  °F | °C
As of 8:15 AM on Saturday 22 Nov 2014 (Local Time) from KGLY Reporting Station
Overcast Overcast  
Wind Chill: 54°   Ceiling: 1700
Heat Index: 54°   Visibility: 10mi
Dew Point: 48°   Wind: 8mph
Humidity: 82%   Direction: 190°S
Pressure: 30.03"   Gusts: NA
Location:  38.0755°N, 94.1669°W
Report Text: KGLY 221415Z AUTO 19007KT 10SM OVC017 12/09 A3003 RMK AO2
Loading
Personal Weather Stations






























Interactive Weather Map New forecast layout! Learn more

10-Day Weather Forecast

Advertisements
Track Severe Weather on mobile